sensor_id;sensor_type;location;lat;lon;timestamp;pressure;altitude;pressure_sealevel;temperature;humidity
72336;BME280;65062;48.446;8.834;2023-01-23T00:00:55;98594.50;;;-0.65;89.95
72336;BME280;65062;48.446;8.834;2023-01-23T00:03:56;98590.28;;;-0.52;89.82
72336;BME280;65062;48.446;8.834;2023-01-23T00:06:56;98590.81;;;-0.61;89.52
72336;BME280;65062;48.446;8.834;2023-01-23T00:09:57;98583.28;;;-0.64;89.44
72336;BME280;65062;48.446;8.834;2023-01-23T00:12:57;98590.72;;;-0.60;89.13
72336;BME280;65062;48.446;8.834;2023-01-23T00:15:57;98583.28;;;-0.64;89.36
72336;BME280;65062;48.446;8.834;2023-01-23T00:18:58;98593.78;;;-0.53;89.08
72336;BME280;65062;48.446;8.834;2023-01-23T00:21:59;98595.78;;;-0.58;88.54
72336;BME280;65062;48.446;8.834;2023-01-23T00:25:00;98594.03;;;-0.58;88.79
72336;BME280;65062;48.446;8.834;2023-01-23T00:28:01;98594.66;;;-0.68;89.10
72336;BME280;65062;48.446;8.834;2023-01-23T00:31:11;98597.16;;;-0.67;89.45
72336;BME280;65062;48.446;8.834;2023-01-23T00:34:13;98594.84;;;-0.71;89.45
72336;BME280;65062;48.446;8.834;2023-01-23T00:37:14;98594.09;;;-0.73;89.69
72336;BME280;65062;48.446;8.834;2023-01-23T00:40:15;98592.94;;;-0.68;90.22
72336;BME280;65062;48.446;8.834;2023-01-23T00:43:16;98589.72;;;-0.57;89.37
72336;BME280;65062;48.446;8.834;2023-01-23T00:46:18;98598.44;;;-0.60;89.44
72336;BME280;65062;48.446;8.834;2023-01-23T00:49:18;98598.75;;;-0.50;89.24
72336;BME280;65062;48.446;8.834;2023-01-23T00:52:19;98600.47;;;-0.51;88.81
72336;BME280;65062;48.446;8.834;2023-01-23T00:55:19;98598.44;;;-0.60;88.92
72336;BME280;65062;48.446;8.834;2023-01-23T00:58:20;98600.84;;;-0.57;89.52
72336;BME280;65062;48.446;8.834;2023-01-23T01:01:20;98595.34;;;-0.51;89.09
72336;BME280;65062;48.446;8.834;2023-01-23T01:04:21;98596.25;;;-0.52;88.84
72336;BME280;65062;48.446;8.834;2023-01-23T01:07:22;98589.19;;;-0.62;88.83
72336;BME280;65062;48.446;8.834;2023-01-23T01:10:23;98591.09;;;-0.66;89.10
72336;BME280;65062;48.446;8.834;2023-01-23T01:13:28;98597.88;;;-0.65;89.34
72336;BME280;65062;48.446;8.834;2023-01-23T01:16:28;98600.66;;;-0.68;89.64
72336;BME280;65062;48.446;8.834;2023-01-23T01:19:29;98608.34;;;-0.68;89.67
72336;BME280;65062;48.446;8.834;2023-01-23T01:22:29;98612.00;;;-0.72;89.89
72336;BME280;65062;48.446;8.834;2023-01-23T01:25:30;98611.28;;;-0.60;89.53
72336;BME280;65062;48.446;8.834;2023-01-23T01:28:32;98613.38;;;-0.66;89.89
72336;BME280;65062;48.446;8.834;2023-01-23T01:31:33;98616.25;;;-0.71;89.96
72336;BME280;65062;48.446;8.834;2023-01-23T01:34:33;98611.88;;;-0.55;89.26
72336;BME280;65062;48.446;8.834;2023-01-23T01:37:35;98610.09;;;-0.54;88.86
72336;BME280;65062;48.446;8.834;2023-01-23T01:40:36;98618.75;;;-0.41;87.99
72336;BME280;65062;48.446;8.834;2023-01-23T01:43:37;98628.09;;;-0.54;88.05
72336;BME280;65062;48.446;8.834;2023-01-23T01:46:37;98624.81;;;-0.56;88.88
72336;BME280;65062;48.446;8.834;2023-01-23T01:49:37;98628.88;;;-0.24;87.16
72336;BME280;65062;48.446;8.834;2023-01-23T01:52:38;98634.19;;;-0.27;86.05
72336;BME280;65062;48.446;8.834;2023-01-23T01:55:39;98629.06;;;-0.13;85.38
72336;BME280;65062;48.446;8.834;2023-01-23T01:58:41;98640.81;;;-0.23;85.36
72336;BME280;65062;48.446;8.834;2023-01-23T02:01:45;98647.91;;;-0.27;85.52
72336;BME280;65062;48.446;8.834;2023-01-23T02:04:50;98641.34;;;-0.32;86.02
72336;BME280;65062;48.446;8.834;2023-01-23T02:08:08;98643.94;;;-0.18;85.28
72336;BME280;65062;48.446;8.834;2023-01-23T02:11:13;98650.84;;;-0.19;85.56
72336;BME280;65062;48.446;8.834;2023-01-23T02:14:16;98650.56;;;-0.28;85.55
72336;BME280;65062;48.446;8.834;2023-01-23T02:17:16;98641.47;;;-0.20;85.75
72336;BME280;65062;48.446;8.834;2023-01-23T02:20:25;98636.38;;;-0.35;86.14
72336;BME280;65062;48.446;8.834;2023-01-23T02:26:44;98626.94;;;-0.35;86.40
72336;BME280;65062;48.446;8.834;2023-01-23T02:29:45;98624.94;;;-0.30;85.95
72336;BME280;65062;48.446;8.834;2023-01-23T02:32:47;98620.25;;;-0.37;86.15
72336;BME280;65062;48.446;8.834;2023-01-23T02:35:48;98626.19;;;-0.37;85.70
72336;BME280;65062;48.446;8.834;2023-01-23T02:38:53;98616.28;;;-0.29;85.64
72336;BME280;65062;48.446;8.834;2023-01-23T02:41:54;98616.66;;;-0.35;86.05
72336;BME280;65062;48.446;8.834;2023-01-23T02:44:55;98620.41;;;-0.40;85.94
72336;BME280;65062;48.446;8.834;2023-01-23T02:47:57;98622.34;;;-0.44;86.39
72336;BME280;65062;48.446;8.834;2023-01-23T02:50:57;98629.59;;;-0.22;85.76
72336;BME280;65062;48.446;8.834;2023-01-23T02:53:57;98634.66;;;-0.35;85.78
72336;BME280;65062;48.446;8.834;2023-01-23T02:56:58;98641.72;;;-0.38;86.28
72336;BME280;65062;48.446;8.834;2023-01-23T02:59:59;98637.22;;;-0.35;86.15
72336;BME280;65062;48.446;8.834;2023-01-23T03:03:18;98639.44;;;-0.29;85.99
72336;BME280;65062;48.446;8.834;2023-01-23T03:06:18;98630.69;;;-0.26;85.79
72336;BME280;65062;48.446;8.834;2023-01-23T03:09:20;98636.31;;;-0.20;85.90
72336;BME280;65062;48.446;8.834;2023-01-23T03:12:21;98631.53;;;-0.26;85.54
72336;BME280;65062;48.446;8.834;2023-01-23T03:15:22;98637.03;;;-0.32;86.50
72336;BME280;65062;48.446;8.834;2023-01-23T03:18:23;98640.72;;;-0.22;85.81
72336;BME280;65062;48.446;8.834;2023-01-23T03:21:24;98640.09;;;-0.25;86.15
72336;BME280;65062;48.446;8.834;2023-01-23T03:24:24;98636.75;;;-0.41;86.35
72336;BME280;65062;48.446;8.834;2023-01-23T03:27:24;98643.91;;;-0.46;86.77
72336;BME280;65062;48.446;8.834;2023-01-23T03:30:25;98638.94;;;-0.49;87.02
72336;BME280;65062;48.446;8.834;2023-01-23T03:33:25;98635.00;;;-0.41;86.69
72336;BME280;65062;48.446;8.834;2023-01-23T03:36:25;98628.75;;;-0.37;86.37
72336;BME280;65062;48.446;8.834;2023-01-23T03:39:26;98626.19;;;-0.37;86.07
72336;BME280;65062;48.446;8.834;2023-01-23T03:42:45;98625.47;;;-0.39;86.16
72336;BME280;65062;48.446;8.834;2023-01-23T03:45:45;98622.25;;;-0.42;86.31
72336;BME280;65062;48.446;8.834;2023-01-23T03:48:46;98616.34;;;-0.44;86.38
72336;BME280;65062;48.446;8.834;2023-01-23T03:51:46;98624.72;;;-0.55;86.49
72336;BME280;65062;48.446;8.834;2023-01-23T03:54:46;98628.63;;;-0.63;86.70
72336;BME280;65062;48.446;8.834;2023-01-23T03:57:47;98633.84;;;-0.65;87.22
72336;BME280;65062;48.446;8.834;2023-01-23T04:00:47;98649.84;;;-0.74;87.34
72336;BME280;65062;48.446;8.834;2023-01-23T04:03:48;98645.66;;;-0.76;88.14
72336;BME280;65062;48.446;8.834;2023-01-23T04:06:49;98646.72;;;-0.65;88.51
72336;BME280;65062;48.446;8.834;2023-01-23T04:09:49;98647.38;;;-0.61;88.14
72336;BME280;65062;48.446;8.834;2023-01-23T04:12:49;98658.41;;;-0.59;87.59
72336;BME280;65062;48.446;8.834;2023-01-23T04:15:50;98659.38;;;-0.62;87.85
72336;BME280;65062;48.446;8.834;2023-01-23T04:18:51;98645.31;;;-0.70;88.03
72336;BME280;65062;48.446;8.834;2023-01-23T04:21:51;98651.75;;;-0.63;87.81
72336;BME280;65062;48.446;8.834;2023-01-23T04:24:51;98657.28;;;-0.69;87.73
72336;BME280;65062;48.446;8.834;2023-01-23T04:27:52;98664.69;;;-0.65;87.44
72336;BME280;65062;48.446;8.834;2023-01-23T04:30:52;98664.63;;;-0.63;87.84
72336;BME280;65062;48.446;8.834;2023-01-23T04:33:52;98666.22;;;-0.76;87.83
72336;BME280;65062;48.446;8.834;2023-01-23T04:36:53;98668.09;;;-0.78;88.47
72336;BME280;65062;48.446;8.834;2023-01-23T04:39:53;98664.53;;;-0.62;88.82
72336;BME280;65062;48.446;8.834;2023-01-23T04:42:54;98664.66;;;-0.79;88.43
72336;BME280;65062;48.446;8.834;2023-01-23T04:45:55;98671.19;;;-0.73;88.83
72336;BME280;65062;48.446;8.834;2023-01-23T04:48:56;98658.34;;;-0.73;89.10
72336;BME280;65062;48.446;8.834;2023-01-23T04:51:56;98660.19;;;-0.75;89.25
72336;BME280;65062;48.446;8.834;2023-01-23T04:54:57;98655.78;;;-0.73;89.24
72336;BME280;65062;48.446;8.834;2023-01-23T04:57:57;98658.56;;;-0.62;88.81
72336;BME280;65062;48.446;8.834;2023-01-23T05:01:05;98665.41;;;-0.77;88.99
72336;BME280;65062;48.446;8.834;2023-01-23T05:04:06;98660.75;;;-0.70;88.78
72336;BME280;65062;48.446;8.834;2023-01-23T05:07:06;98667.09;;;-0.62;88.18
72336;BME280;65062;48.446;8.834;2023-01-23T05:10:09;98662.63;;;-0.58;88.10
72336;BME280;65062;48.446;8.834;2023-01-23T05:13:09;98669.75;;;-0.63;88.21
72336;BME280;65062;48.446;8.834;2023-01-23T05:16:10;98672.03;;;-0.73;88.67
72336;BME280;65062;48.446;8.834;2023-01-23T05:19:10;98669.66;;;-0.62;88.58
72336;BME280;65062;48.446;8.834;2023-01-23T05:22:11;98667.75;;;-0.58;88.31
72336;BME280;65062;48.446;8.834;2023-01-23T05:25:11;98672.16;;;-0.60;88.10
72336;BME280;65062;48.446;8.834;2023-01-23T05:28:12;98673.75;;;-0.58;88.40
72336;BME280;65062;48.446;8.834;2023-01-23T05:31:12;98671.97;;;-0.57;88.05
72336;BME280;65062;48.446;8.834;2023-01-23T05:34:13;98671.81;;;-0.54;87.96
72336;BME280;65062;48.446;8.834;2023-01-23T05:37:13;98667.09;;;-0.62;88.12
72336;BME280;65062;48.446;8.834;2023-01-23T05:40:13;98665.53;;;-0.64;87.97
72336;BME280;65062;48.446;8.834;2023-01-23T05:43:14;98666.38;;;-0.64;88.12
72336;BME280;65062;48.446;8.834;2023-01-23T05:46:15;98672.16;;;-0.60;87.86
72336;BME280;65062;48.446;8.834;2023-01-23T05:49:16;98667.94;;;-0.61;87.57
72336;BME280;65062;48.446;8.834;2023-01-23T05:52:16;98672.16;;;-0.60;87.86
72336;BME280;65062;48.446;8.834;2023-01-23T05:55:17;98668.78;;;-0.61;88.12
72336;BME280;65062;48.446;8.834;2023-01-23T05:58:17;98667.28;;;-0.65;87.91
72336;BME280;65062;48.446;8.834;2023-01-23T06:01:18;98673.16;;;-0.63;87.75
72336;BME280;65062;48.446;8.834;2023-01-23T06:04:19;98676.84;;;-0.67;88.15
72336;BME280;65062;48.446;8.834;2023-01-23T06:07:19;98674.44;;;-0.70;88.66
72336;BME280;65062;48.446;8.834;2023-01-23T06:10:20;98667.72;;;-0.72;88.22
72336;BME280;65062;48.446;8.834;2023-01-23T06:13:20;98682.41;;;-0.74;88.32
72336;BME280;65062;48.446;8.834;2023-01-23T06:16:20;98677.53;;;-0.79;88.64
72336;BME280;65062;48.446;8.834;2023-01-23T06:19:21;98681.47;;;-0.73;88.14
72336;BME280;65062;48.446;8.834;2023-01-23T06:22:21;98685.16;;;-0.77;88.14
72336;BME280;65062;48.446;8.834;2023-01-23T06:25:21;98689.78;;;-0.84;88.63
72336;BME280;65062;48.446;8.834;2023-01-23T06:28:22;98688.22;;;-0.86;88.86
72336;BME280;65062;48.446;8.834;2023-01-23T06:31:22;98695.69;;;-0.82;89.01
72336;BME280;65062;48.446;8.834;2023-01-23T06:34:22;98698.06;;;-0.79;88.80
72336;BME280;65062;48.446;8.834;2023-01-23T06:37:23;98714.38;;;-0.64;88.23
72336;BME280;65062;48.446;8.834;2023-01-23T06:40:23;98719.34;;;-0.61;87.93
72336;BME280;65062;48.446;8.834;2023-01-23T06:43:24;98719.06;;;-0.71;88.37
72336;BME280;65062;48.446;8.834;2023-01-23T06:46:25;98725.59;;;-0.65;88.13
72336;BME280;65062;48.446;8.834;2023-01-23T06:49:25;98721.03;;;-0.76;88.11
72336;BME280;65062;48.446;8.834;2023-01-23T06:52:25;98723.09;;;-0.82;88.49
72336;BME280;65062;48.446;8.834;2023-01-23T06:55:26;98729.41;;;-0.72;88.41
72336;BME280;65062;48.446;8.834;2023-01-23T06:58:26;98732.25;;;-0.77;88.67
72336;BME280;65062;48.446;8.834;2023-01-23T07:01:28;98730.72;;;-0.65;89.04
72336;BME280;65062;48.446;8.834;2023-01-23T07:04:28;98730.22;;;-0.56;87.96
72336;BME280;65062;48.446;8.834;2023-01-23T07:07:28;98743.06;;;-0.56;87.92
72336;BME280;65062;48.446;8.834;2023-01-23T07:10:29;98734.00;;;-0.48;87.37
72336;BME280;65062;48.446;8.834;2023-01-23T07:13:31;98737.19;;;-0.44;86.56
72336;BME280;65062;48.446;8.834;2023-01-23T07:16:31;98743.84;;;-0.40;86.55
72336;BME280;65062;48.446;8.834;2023-01-23T07:19:34;98738.78;;;-0.42;86.84
72336;BME280;65062;48.446;8.834;2023-01-23T07:22:34;98738.78;;;-0.42;86.95
72336;BME280;65062;48.446;8.834;2023-01-23T07:25:34;98741.00;;;-0.36;87.00
72336;BME280;65062;48.446;8.834;2023-01-23T07:28:36;98741.28;;;-0.40;86.58
72336;BME280;65062;48.446;8.834;2023-01-23T07:31:37;98741.56;;;-0.31;86.39
72336;BME280;65062;48.446;8.834;2023-01-23T07:34:37;98747.72;;;-0.33;86.26
72336;BME280;65062;48.446;8.834;2023-01-23T07:37:38;98746.97;;;-0.35;86.61
72336;BME280;65062;48.446;8.834;2023-01-23T07:40:38;98743.59;;;-0.36;86.34
72336;BME280;65062;48.446;8.834;2023-01-23T07:43:41;98741.56;;;-0.31;86.56
72336;BME280;65062;48.446;8.834;2023-01-23T07:46:43;98738.88;;;-0.43;86.70
72336;BME280;65062;48.446;8.834;2023-01-23T07:49:44;98746.97;;;-0.35;86.36
72336;BME280;65062;48.446;8.834;2023-01-23T07:52:44;98740.50;;;-0.27;86.05
72336;BME280;65062;48.446;8.834;2023-01-23T07:55:45;98744.13;;;-0.31;85.71
72336;BME280;65062;48.446;8.834;2023-01-23T07:58:48;98743.34;;;-0.17;85.25
72336;BME280;65062;48.446;8.834;2023-01-23T08:01:49;98751.56;;;-0.11;85.09
72336;BME280;65062;48.446;8.834;2023-01-23T08:04:51;98746.13;;;-0.06;84.59
72336;BME280;65062;48.446;8.834;2023-01-23T08:07:51;98751.56;;;-0.11;84.50
72336;BME280;65062;48.446;8.834;2023-01-23T08:10:52;98740.06;;;-0.05;84.20
72336;BME280;65062;48.446;8.834;2023-01-23T08:13:52;98744.63;;;-0.10;83.99
72336;BME280;65062;48.446;8.834;2023-01-23T08:16:53;98744.47;;;-0.07;83.98
72336;BME280;65062;48.446;8.834;2023-01-23T08:19:54;98749.25;;;-0.01;83.77
72336;BME280;65062;48.446;8.834;2023-01-23T08:22:54;98750.28;;;-0.04;83.00
72336;BME280;65062;48.446;8.834;2023-01-23T08:25:58;98747.88;;;-0.07;83.21
72336;BME280;65062;48.446;8.834;2023-01-23T08:28:59;98752.34;;;-0.10;83.19
72336;BME280;65062;48.446;8.834;2023-01-23T08:31:59;98759.28;;;-0.11;83.27
72336;BME280;65062;48.446;8.834;2023-01-23T08:34:59;98757.69;;;-0.13;83.08
72336;BME280;65062;48.446;8.834;2023-01-23T08:38:00;98757.91;;;-0.02;82.46
72336;BME280;65062;48.446;8.834;2023-01-23T08:41:02;98755.25;;;-0.01;81.68
72336;BME280;65062;48.446;8.834;2023-01-23T08:44:02;98763.59;;;0.03;82.00
72336;BME280;65062;48.446;8.834;2023-01-23T08:47:03;98753.88;;;0.08;82.32
72336;BME280;65062;48.446;8.834;2023-01-23T08:50:04;98756.25;;;0.11;80.49
72336;BME280;65062;48.446;8.834;2023-01-23T08:53:05;98754.78;;;0.07;80.58
72336;BME280;65062;48.446;8.834;2023-01-23T08:56:12;98767.13;;;0.16;80.72
72336;BME280;65062;48.446;8.834;2023-01-23T08:59:13;98763.19;;;0.25;79.71
72336;BME280;65062;48.446;8.834;2023-01-23T09:02:14;98765.47;;;0.29;79.91
72336;BME280;65062;48.446;8.834;2023-01-23T09:05:14;98774.97;;;0.43;79.40
72336;BME280;65062;48.446;8.834;2023-01-23T09:08:15;98765.84;;;0.37;78.96
72336;BME280;65062;48.446;8.834;2023-01-23T09:11:17;98761.88;;;0.46;79.65
72336;BME280;65062;48.446;8.834;2023-01-23T09:14:18;98757.00;;;0.69;77.56
72336;BME280;65062;48.446;8.834;2023-01-23T09:17:20;98746.69;;;0.83;77.12
72336;BME280;65062;48.446;8.834;2023-01-23T09:20:21;98753.84;;;0.92;76.92
72336;BME280;65062;48.446;8.834;2023-01-23T09:23:22;98744.44;;;0.91;77.58
72336;BME280;65062;48.446;8.834;2023-01-23T09:26:23;98749.81;;;0.88;76.95
72336;BME280;65062;48.446;8.834;2023-01-23T09:29:23;98761.13;;;0.86;77.12
72336;BME280;65062;48.446;8.834;2023-01-23T09:32:24;98762.28;;;0.94;76.43
72336;BME280;65062;48.446;8.834;2023-01-23T09:35:24;98759.06;;;1.05;77.30
72336;BME280;65062;48.446;8.834;2023-01-23T09:38:25;98762.03;;;0.85;77.14
72336;BME280;65062;48.446;8.834;2023-01-23T09:41:27;98765.38;;;0.73;77.97
72336;BME280;65062;48.446;8.834;2023-01-23T09:47:35;98755.81;;;0.61;78.26
72336;BME280;65062;48.446;8.834;2023-01-23T09:50:51;98759.13;;;0.63;79.58
72336;BME280;65062;48.446;8.834;2023-01-23T09:54:00;98756.19;;;0.69;78.13
72336;BME280;65062;48.446;8.834;2023-01-23T09:57:12;98760.13;;;0.74;78.35
72336;BME280;65062;48.446;8.834;2023-01-23T10:00:19;98765.94;;;0.78;78.28
72336;BME280;65062;48.446;8.834;2023-01-23T10:03:25;98768.03;;;0.85;78.19
72336;BME280;65062;48.446;8.834;2023-01-23T10:06:37;98755.34;;;0.68;78.61
72336;BME280;65062;48.446;8.834;2023-01-23T10:22:49;98751.41;;;0.63;80.08
72336;BME280;65062;48.446;8.834;2023-01-23T10:25:55;98744.47;;;0.77;79.42
72336;BME280;65062;48.446;8.834;2023-01-23T10:29:01;98751.47;;;0.89;78.69
72336;BME280;65062;48.446;8.834;2023-01-23T10:36:02;98749.63;;;1.18;77.31
72336;BME280;65062;48.446;8.834;2023-01-23T10:39:10;98740.53;;;1.12;76.31
72336;BME280;65062;48.446;8.834;2023-01-23T10:42:12;98742.78;;;1.04;76.43
72336;BME280;65062;48.446;8.834;2023-01-23T10:45:17;98746.91;;;1.07;76.69
72336;BME280;65062;48.446;8.834;2023-01-23T10:48:50;98743.78;;;1.02;76.52
72336;BME280;65062;48.446;8.834;2023-01-23T10:51:51;98734.88;;;0.93;75.88
72336;BME280;65062;48.446;8.834;2023-01-23T10:54:51;98731.53;;;1.05;76.41
72336;BME280;65062;48.446;8.834;2023-01-23T10:57:54;98734.22;;;1.04;76.04
72336;BME280;65062;48.446;8.834;2023-01-23T11:00:55;98741.94;;;1.04;76.01
72336;BME280;65062;48.446;8.834;2023-01-23T11:03:56;98733.66;;;0.99;75.40
72336;BME280;65062;48.446;8.834;2023-01-23T11:07:03;98722.34;;;1.01;75.88
72336;BME280;65062;48.446;8.834;2023-01-23T11:13:24;98716.06;;;1.05;75.80
72336;BME280;65062;48.446;8.834;2023-01-23T11:16:24;98716.22;;;1.16;74.73
72336;BME280;65062;48.446;8.834;2023-01-23T11:19:25;98705.03;;;1.03;75.31
72336;BME280;65062;48.446;8.834;2023-01-23T11:22:37;98711.47;;;1.10;74.30
72336;BME280;65062;48.446;8.834;2023-01-23T11:25:49;98708.38;;;1.18;74.63
72336;BME280;65062;48.446;8.834;2023-01-23T11:28:50;98709.22;;;1.18;74.56
72336;BME280;65062;48.446;8.834;2023-01-23T11:32:00;98713.59;;;1.30;74.55
72336;BME280;65062;48.446;8.834;2023-01-23T11:35:12;98705.66;;;1.33;74.92
72336;BME280;65062;48.446;8.834;2023-01-23T11:38:16;98704.56;;;1.50;73.39
72336;BME280;65062;48.446;8.834;2023-01-23T11:41:28;98703.78;;;1.35;74.78
72336;BME280;65062;48.446;8.834;2023-01-23T11:44:31;98703.03;;;1.21;74.62
72336;BME280;65062;48.446;8.834;2023-01-23T11:48:01;98701.63;;;1.29;74.36
72336;BME280;65062;48.446;8.834;2023-01-23T11:51:19;98703.78;;;1.35;74.13
72336;BME280;65062;48.446;8.834;2023-01-23T11:54:37;98697.09;;;1.33;74.50
72336;BME280;65062;48.446;8.834;2023-01-23T12:01:17;98693.75;;;1.18;75.36
72336;BME280;65062;48.446;8.834;2023-01-23T12:04:34;98688.50;;;1.20;75.27
72336;BME280;65062;48.446;8.834;2023-01-23T12:14:25;98675.47;;;1.09;75.03
72336;BME280;65062;48.446;8.834;2023-01-23T12:17:52;98678.84;;;1.09;75.12
72336;BME280;65062;48.446;8.834;2023-01-23T12:21:27;98672.28;;;1.18;74.54
72336;BME280;65062;48.446;8.834;2023-01-23T12:27:49;98658.84;;;1.39;75.37
72336;BME280;65062;48.446;8.834;2023-01-23T12:41:44;98645.69;;;1.17;75.12
72336;BME280;65062;48.446;8.834;2023-01-23T12:45:00;98649.31;;;1.27;75.49
72336;BME280;65062;48.446;8.834;2023-01-23T12:48:22;98640.69;;;1.41;74.83
72336;BME280;65062;48.446;8.834;2023-01-23T12:51:36;98640.91;;;1.50;74.76
72336;BME280;65062;48.446;8.834;2023-01-23T12:54:42;98638.31;;;1.50;74.31
72336;BME280;65062;48.446;8.834;2023-01-23T12:57:44;98640.00;;;1.51;73.89
72336;BME280;65062;48.446;8.834;2023-01-23T13:07:32;98641.91;;;1.35;75.38
72336;BME280;65062;48.446;8.834;2023-01-23T13:11:06;98635.22;;;1.45;75.69
72336;BME280;65062;48.446;8.834;2023-01-23T13:17:46;98630.19;;;1.44;75.83
72336;BME280;65062;48.446;8.834;2023-01-23T13:20:58;98633.84;;;1.40;75.92
72336;BME280;65062;48.446;8.834;2023-01-23T13:27:42;98635.19;;;1.33;76.38
72336;BME280;65062;48.446;8.834;2023-01-23T13:30:58;98630.44;;;1.27;76.88
72336;BME280;65062;48.446;8.834;2023-01-23T13:33:59;98624.13;;;1.18;76.73
72336;BME280;65062;48.446;8.834;2023-01-23T13:40:39;98624.91;;;1.45;75.97
72336;BME280;65062;48.446;8.834;2023-01-23T13:50:10;98625.13;;;1.55;76.28
72336;BME280;65062;48.446;8.834;2023-01-23T13:53:17;98622.44;;;1.56;76.21
72336;BME280;65062;48.446;8.834;2023-01-23T13:56:39;98613.88;;;1.56;75.56
72336;BME280;65062;48.446;8.834;2023-01-23T13:59:47;98617.91;;;1.60;76.14
72336;BME280;65062;48.446;8.834;2023-01-23T14:03:09;98614.28;;;1.50;75.93
72336;BME280;65062;48.446;8.834;2023-01-23T14:06:36;98609.34;;;1.72;75.20
72336;BME280;65062;48.446;8.834;2023-01-23T14:09:41;98606.66;;;1.86;75.04
72336;BME280;65062;48.446;8.834;2023-01-23T14:12:41;98609.44;;;1.95;74.82
72336;BME280;65062;48.446;8.834;2023-01-23T14:15:48;98599.53;;;1.89;74.36
72336;BME280;65062;48.446;8.834;2023-01-23T14:19:25;98593.00;;;1.96;75.14
72336;BME280;65062;48.446;8.834;2023-01-23T14:22:29;98601.97;;;2.03;74.56
72336;BME280;65062;48.446;8.834;2023-01-23T14:25:30;98603.63;;;2.04;75.03
72336;BME280;65062;48.446;8.834;2023-01-23T14:28:30;98606.31;;;2.03;74.69
72336;BME280;65062;48.446;8.834;2023-01-23T14:31:35;98604.59;;;1.91;75.07
72336;BME280;65062;48.446;8.834;2023-01-23T14:34:38;98598.63;;;1.78;75.40
72336;BME280;65062;48.446;8.834;2023-01-23T14:37:40;98599.34;;;1.67;76.87
72336;BME280;65062;48.446;8.834;2023-01-23T14:40:41;98602.53;;;1.71;75.66
72336;BME280;65062;48.446;8.834;2023-01-23T14:43:45;98599.25;;;1.69;76.53
72336;BME280;65062;48.446;8.834;2023-01-23T14:46:45;98607.28;;;1.64;76.69
72336;BME280;65062;48.446;8.834;2023-01-23T14:49:49;98617.47;;;1.53;77.70
72336;BME280;65062;48.446;8.834;2023-01-23T14:53:04;98604.69;;;1.52;77.24
72336;BME280;65062;48.446;8.834;2023-01-23T14:56:06;98607.38;;;1.50;77.36
72336;BME280;65062;48.446;8.834;2023-01-23T14:59:22;98610.16;;;1.60;77.59
72336;BME280;65062;48.446;8.834;2023-01-23T15:02:34;98604.38;;;1.56;77.53
72336;BME280;65062;48.446;8.834;2023-01-23T15:05:35;98602.53;;;1.58;77.20
72336;BME280;65062;48.446;8.834;2023-01-23T15:08:38;98611.09;;;1.46;78.50
72336;BME280;65062;48.446;8.834;2023-01-23T15:11:39;98611.78;;;1.36;78.75
72336;BME280;65062;48.446;8.834;2023-01-23T15:14:40;98607.47;;;1.36;79.36
72336;BME280;65062;48.446;8.834;2023-01-23T15:17:43;98606.72;;;1.34;79.52
72336;BME280;65062;48.446;8.834;2023-01-23T15:20:55;98610.25;;;1.33;79.54
72336;BME280;65062;48.446;8.834;2023-01-23T15:30:36;98612.81;;;1.33;79.52
72336;BME280;65062;48.446;8.834;2023-01-23T15:33:39;98599.94;;;1.33;79.64
72336;BME280;65062;48.446;8.834;2023-01-23T15:36:46;98602.41;;;1.35;79.71
72336;BME280;65062;48.446;8.834;2023-01-23T15:39:58;98616.75;;;1.26;79.64
72336;BME280;65062;48.446;8.834;2023-01-23T15:43:05;98605.94;;;1.34;80.04
72336;BME280;65062;48.446;8.834;2023-01-23T15:46:10;98619.22;;;1.40;79.51
72336;BME280;65062;48.446;8.834;2023-01-23T15:49:11;98610.25;;;1.33;79.71
72336;BME280;65062;48.446;8.834;2023-01-23T15:52:50;98610.94;;;1.35;79.24
72336;BME280;65062;48.446;8.834;2023-01-23T15:55:51;98622.75;;;1.39;79.56
72336;BME280;65062;48.446;8.834;2023-01-23T15:58:51;98614.50;;;1.47;79.68
72336;BME280;65062;48.446;8.834;2023-01-23T16:01:52;98622.34;;;1.45;79.61
72336;BME280;65062;48.446;8.834;2023-01-23T16:04:52;98624.06;;;1.45;79.75
72336;BME280;65062;48.446;8.834;2023-01-23T16:07:54;98617.97;;;1.46;80.22
72336;BME280;65062;48.446;8.834;2023-01-23T16:10:54;98627.16;;;1.37;80.35
72336;BME280;65062;48.446;8.834;2023-01-23T16:13:55;98626.03;;;1.41;80.16
72336;BME280;65062;48.446;8.834;2023-01-23T16:16:55;98624.28;;;1.42;80.89
72336;BME280;65062;48.446;8.834;2023-01-23T16:19:55;98629.44;;;1.42;80.81
72336;BME280;65062;48.446;8.834;2023-01-23T16:23:02;98634.50;;;1.43;81.19
72336;BME280;65062;48.446;8.834;2023-01-23T16:26:02;98635.03;;;1.48;80.85
72336;BME280;65062;48.446;8.834;2023-01-23T16:29:03;98633.75;;;1.41;80.97
72336;BME280;65062;48.446;8.834;2023-01-23T16:32:03;98637.81;;;1.45;80.60
72336;BME280;65062;48.446;8.834;2023-01-23T16:35:04;98639.16;;;1.51;80.75
72336;BME280;65062;48.446;8.834;2023-01-23T16:38:05;98643.47;;;1.50;80.68
72336;BME280;65062;48.446;8.834;2023-01-23T16:41:06;98645.56;;;1.45;81.26
72336;BME280;65062;48.446;8.834;2023-01-23T16:44:17;98642.88;;;1.47;81.11
72336;BME280;65062;48.446;8.834;2023-01-23T16:47:18;98652.00;;;1.38;81.53
72336;BME280;65062;48.446;8.834;2023-01-23T16:50:29;98653.09;;;1.48;81.54
72336;BME280;65062;48.446;8.834;2023-01-23T16:53:34;98659.69;;;1.52;81.11
72336;BME280;65062;48.446;8.834;2023-01-23T16:56:38;98660.63;;;1.51;80.86
72336;BME280;65062;48.446;8.834;2023-01-23T16:59:40;98670.84;;;1.53;80.44
72336;BME280;65062;48.446;8.834;2023-01-23T17:02:41;98657.84;;;1.54;80.49
72336;BME280;65062;48.446;8.834;2023-01-23T17:05:41;98657.22;;;1.51;80.69
72336;BME280;65062;48.446;8.834;2023-01-23T17:08:42;98659.50;;;1.55;81.06
72336;BME280;65062;48.446;8.834;2023-01-23T17:11:53;98671.16;;;1.48;81.12
72336;BME280;65062;48.446;8.834;2023-01-23T17:14:55;98672.88;;;1.48;81.06
72336;BME280;65062;48.446;8.834;2023-01-23T17:17:57;98674.97;;;1.55;80.93
72336;BME280;65062;48.446;8.834;2023-01-23T17:21:00;98669.56;;;1.46;81.80
72336;BME280;65062;48.446;8.834;2023-01-23T17:24:00;98678.97;;;1.47;81.49
72336;BME280;65062;48.446;8.834;2023-01-23T17:27:00;98673.91;;;1.45;81.34
72336;BME280;65062;48.446;8.834;2023-01-23T17:30:01;98670.19;;;1.49;81.71
72336;BME280;65062;48.446;8.834;2023-01-23T17:33:01;98684.34;;;1.56;81.03
72336;BME280;65062;48.446;8.834;2023-01-23T17:36:02;98676.59;;;1.56;80.90
72336;BME280;65062;48.446;8.834;2023-01-23T17:39:03;98676.31;;;1.48;81.17